Time;durP1;ratioP1;P1;durP2;ratioP2;P2;SDS_P1;SDS_P2;PMS_P1;PMS_P2;Temp;Humidity;BMP_temperature;BMP_pressure;BME280_temperature;BME280_humidity;BME280_pressure;Samples;Min_cycle;Max_cycle;Signal;HPM_P1;HPM_P2
2023/03/03 00:01:10;;;;;;;46.40;32.27;;;0.90;99.90;;;1.72;89.37;98116.41;5237372;28;20250;-63
2023/03/03 00:03:44;;;;;;;46.90;32.30;;;0.90;99.90;;;1.74;89.63;98119.94;5238167;28;20240;-63
2023/03/03 00:06:17;;;;;;;44.80;32.40;;;0.90;99.90;;;1.72;89.67;98122.34;5235394;28;20236;-62
2023/03/03 00:08:51;;;;;;;43.57;31.73;;;0.80;99.90;;;1.66;89.30;98118.31;5235166;28;20644;-62
2023/03/03 00:11:24;;;;;;;42.33;31.37;;;0.80;99.90;;;1.66;89.41;98121.75;5231276;28;20239;-62
2023/03/03 00:13:58;;;;;;;38.83;30.00;;;0.80;99.90;;;1.71;89.48;98114.63;5240374;28;20205;-62
2023/03/03 00:16:37;;;;;;;41.10;29.97;;;0.70;99.90;;;1.56;88.96;98121.63;5243065;28;20577;-63
2023/03/03 00:19:17;;;;;;;41.80;31.63;;;0.60;99.90;;;1.42;89.52;98125.31;5235254;28;20270;-62
2023/03/03 00:21:53;;;;;;;45.90;33.13;;;0.60;99.90;;;1.42;89.76;98121.91;5229236;28;20302;-62
2023/03/03 00:24:36;;;;;;;49.07;33.27;;;0.60;99.90;;;1.41;89.76;98133.63;5233623;28;20200;-62
2023/03/03 00:27:23;;;;;;;47.43;33.33;;;0.60;99.90;;;1.38;90.03;98120.75;5240246;28;20217;-62
2023/03/03 00:29:59;;;;;;;45.47;32.43;;;0.60;99.90;;;1.39;90.15;98125.03;5241678;28;20231;-62
2023/03/03 00:32:43;;;;;;;48.30;34.37;;;0.60;99.90;;;1.35;90.23;98123.84;5239505;28;20192;-62
2023/03/03 00:35:26;;;;;;;45.90;32.53;;;0.50;99.90;;;1.32;90.23;98123.56;5244038;28;20262;-61
2023/03/03 00:38:01;;;;;;;48.20;33.23;;;0.50;99.90;;;1.29;90.79;98123.28;5238210;28;20228;-62
2023/03/03 00:40:37;;;;;;;44.17;32.07;;;0.50;99.90;;;1.27;91.17;98129.78;5237524;28;20683;-61
2023/03/03 00:43:19;;;;;;;47.57;32.97;;;0.50;99.90;;;1.25;90.62;98131.25;5239402;28;20273;-62
2023/03/03 00:45:55;;;;;;;45.43;33.17;;;0.50;99.90;;;1.25;90.73;98131.25;5237654;28;20242;-62
2023/03/03 00:48:31;;;;;;;43.33;31.60;;;0.50;99.90;;;1.28;90.71;98125.63;5239163;28;20307;-63
2023/03/03 00:51:25;;;;;;;49.10;32.70;;;0.50;99.90;;;1.27;90.64;98119.72;5242475;28;20290;-61
2023/03/03 00:53:59;;;;;;;50.80;34.20;;;0.50;99.90;;;1.26;90.46;98117.03;5236057;28;20706;-62
2023/03/03 00:56:32;;;;;;;45.90;33.00;;;0.50;99.90;;;1.21;90.56;98124.16;5240609;28;20268;-62
2023/03/03 00:59:06;;;;;;;47.23;33.47;;;0.40;99.90;;;1.07;90.86;98124.44;5238923;28;20315;-62
2023/03/03 01:01:41;;;;;;;45.57;32.40;;;0.30;99.90;;;1.03;90.85;98123.25;5233916;28;20249;-62
2023/03/03 01:04:14;;;;;;;45.37;33.00;;;0.30;99.90;;;1.11;90.80;98119.84;5240569;28;20274;-62
2023/03/03 01:06:48;;;;;;;47.50;32.37;;;0.40;99.90;;;1.14;90.63;98116.72;5239884;28;20519;-62
2023/03/03 01:09:22;;;;;;;49.40;33.93;;;0.40;99.90;;;1.17;91.11;98112.00;5236176;28;20283;-61
2023/03/03 01:11:55;;;;;;;43.90;32.83;;;0.40;99.90;;;1.09;91.62;98120.47;5238021;28;20228;-62
2023/03/03 01:14:28;;;;;;;48.80;33.60;;;0.30;99.90;;;1.10;91.85;98119.72;5245614;28;20332;-62
2023/03/03 01:17:03;;;;;;;45.40;31.57;;;0.30;99.90;;;1.07;91.50;98116.88;5244918;28;20225;-62
2023/03/03 01:19:36;;;;;;;49.37;32.90;;;0.20;99.90;;;1.05;90.99;98114.22;5239692;28;20266;-62
2023/03/03 01:22:09;;;;;;;45.40;31.40;;;0.20;99.90;;;1.11;90.81;98116.44;5233431;28;20245;-62
2023/03/03 01:24:42;;;;;;;45.93;31.73;;;0.20;99.90;;;1.04;90.62;98119.13;5232988;28;20304;-61
2023/03/03 01:27:15;;;;;;;44.40;31.97;;;0.20;99.90;;;1.00;91.28;98122.06;5242938;28;20225;-62
2023/03/03 01:29:49;;;;;;;46.67;34.10;;;0.20;99.90;;;1.00;91.14;98117.00;5236803;28;20211;-62
2023/03/03 01:32:23;;;;;;;47.03;34.03;;;0.20;99.90;;;1.03;91.36;98122.34;5249958;28;20572;-62
2023/03/03 01:34:57;;;;;;;46.83;33.30;;;0.20;99.90;;;1.03;91.23;98117.31;5235353;28;20248;-62
2023/03/03 01:37:30;;;;;;;43.80;30.17;;;0.20;99.90;;;1.03;91.42;98115.72;5241234;28;20775;-61
2023/03/03 01:40:07;;;;;;;52.93;35.73;;;0.30;99.90;;;1.06;91.61;98113.50;5242672;28;20274;-62
2023/03/03 01:42:40;;;;;;;44.67;32.97;;;0.30;99.90;;;1.10;91.29;98117.19;5237649;28;20193;-62
2023/03/03 01:45:26;;;;;;;46.80;33.43;;;0.30;99.90;;;1.08;91.19;98117.03;5242173;28;20234;-62
2023/03/03 01:48:05;;;;;;;46.90;33.13;;;0.30;99.90;;;1.09;91.84;98113.78;5235279;28;20300;-62
2023/03/03 01:50:45;;;;;;;47.43;34.03;;;0.30;99.90;;;1.14;91.31;98114.22;5243029;28;20233;-62
2023/03/03 01:53:22;;;;;;;48.63;33.67;;;0.40;99.90;;;1.15;91.38;98115.13;5239000;28;20219;-62
2023/03/03 01:55:56;;;;;;;51.23;36.20;;;0.40;99.90;;;1.16;91.90;98110.22;5245237;28;20207;-62
2023/03/03 01:58:35;;;;;;;49.90;34.70;;;0.40;99.90;;;1.18;92.24;98111.28;5242422;28;20251;-62
2023/03/03 02:01:13;;;;;;;49.97;35.50;;;0.40;99.90;;;1.19;91.70;98108.00;5243436;28;20204;-62
2023/03/03 02:03:49;;;;;;;48.33;32.30;;;0.40;99.90;;;1.29;91.34;98104.75;5240677;28;20632;-62
2023/03/03 02:06:27;;;;;;;49.00;34.27;;;0.40;99.90;;;1.29;91.07;98100.63;5241159;28;20193;-62
2023/03/03 02:09:07;;;;;;;46.57;32.17;;;0.40;99.90;;;1.27;90.58;98102.09;5240732;28;20262;-62
2023/03/03 02:11:44;;;;;;;43.03;30.57;;;0.40;99.90;;;1.21;90.98;98098.09;5236023;28;20200;-62
2023/03/03 02:14:17;;;;;;;47.50;32.67;;;0.40;99.90;;;1.20;91.36;98093.78;5242071;28;20192;-62
2023/03/03 02:16:51;;;;;;;48.83;33.47;;;0.40;99.90;;;1.28;91.39;98090.38;5234593;28;20925;-62
2023/03/03 02:19:36;;;;;;;45.70;32.00;;;0.50;99.90;;;1.30;91.45;98087.28;5233966;28;20224;-62
2023/03/03 02:22:09;;;;;;;46.43;32.37;;;0.50;99.90;;;1.34;91.40;98088.44;5230220;28;20284;-62
2023/03/03 02:24:49;;;;;;;45.93;32.80;;;0.60;99.90;;;1.37;91.36;98081.19;5233419;28;20228;-62
2023/03/03 02:27:23;;;;;;;47.60;33.17;;;0.60;99.90;;;1.39;91.05;98083.84;5236697;28;20255;-62
2023/03/03 02:29:57;;;;;;;46.37;32.73;;;0.60;99.90;;;1.37;91.53;98082.81;5238158;28;20645;-61
2023/03/03 02:32:30;;;;;;;50.27;35.03;;;0.60;99.90;;;1.41;91.97;98083.28;5245537;28;20208;-62
2023/03/03 02:35:32;;;;;;;53.80;36.73;;;0.60;99.90;;;1.46;91.27;98087.13;5236334;28;20200;-61
2023/03/03 02:38:17;;;;;;;52.80;35.23;;;0.60;99.90;;;1.37;91.69;98085.34;5239247;28;20626;-63
2023/03/03 02:41:03;;;;;;;48.90;34.80;;;0.50;99.90;;;1.44;91.61;98088.59;5238738;28;20200;-63
2023/03/03 02:43:46;;;;;;;47.33;33.20;;;0.60;99.90;;;1.54;91.34;98090.34;5234735;28;20250;-62
2023/03/03 02:46:20;;;;;;;46.57;32.50;;;0.60;99.90;;;1.55;91.28;98087.09;5234960;28;20760;-62
2023/03/03 02:48:53;;;;;;;43.40;32.17;;;0.70;99.90;;;1.68;90.49;98079.06;5253393;28;20650;-62
2023/03/03 02:51:26;;;;;;;45.87;31.93;;;0.70;99.90;;;1.67;90.12;98082.34;5239588;28;20404;-62
2023/03/03 02:53:59;;;;;;;49.13;33.50;;;0.70;99.90;;;1.60;90.40;98085.88;5235035;28;21331;-63
2023/03/03 02:56:32;;;;;;;45.63;33.07;;;0.70;99.90;;;1.60;90.38;98085.88;5240488;28;20317;-63
2023/03/03 02:59:07;;;;;;;51.53;34.73;;;0.70;99.90;;;1.57;90.62;98088.13;5235894;28;20243;-62
2023/03/03 03:01:40;;;;;;;45.30;32.27;;;0.70;99.90;;;1.55;91.17;98097.19;5241788;28;20224;-62
2023/03/03 03:04:16;;;;;;;48.37;34.20;;;0.70;99.90;;;1.58;91.25;98097.47;5238648;28;20291;-62
2023/03/03 03:06:50;;;;;;;52.80;34.63;;;0.70;99.90;;;1.58;91.51;98102.50;5244837;28;20564;-62
2023/03/03 03:09:24;;;;;;;51.27;36.50;;;0.80;99.90;;;1.66;91.80;98106.66;5243574;28;20250;-62
2023/03/03 03:12:01;;;;;;;52.70;36.73;;;0.90;99.90;;;1.72;91.85;98102.19;5231219;28;20274;-62
2023/03/03 03:14:35;;;;;;;47.20;34.00;;;0.90;99.90;;;1.86;91.15;98100.06;5233841;28;20226;-62
2023/03/03 03:17:10;;;;;;;47.73;34.07;;;0.90;99.90;;;1.92;90.29;98099.03;5240792;28;20702;-62
2023/03/03 03:19:43;;;;;;;45.03;32.67;;;0.90;99.90;;;1.94;89.26;98100.03;5236042;28;20204;-62
2023/03/03 03:22:18;;;;;;;50.17;33.90;;;0.90;99.90;;;1.90;89.47;98097.97;5239992;28;20200;-62
2023/03/03 03:24:51;;;;;;;48.07;33.67;;;0.90;99.90;;;1.82;89.92;98098.00;5226919;28;20262;-62
2023/03/03 03:27:24;;;;;;;47.00;33.90;;;0.90;99.90;;;1.77;89.93;98095.97;5235209;28;20252;-62
2023/03/03 03:29:58;;;;;;;47.13;34.10;;;0.90;99.90;;;1.77;90.70;98093.44;5240341;28;20213;-62
2023/03/03 03:32:32;;;;;;;44.83;32.50;;;1.00;99.90;;;1.82;90.77;98098.00;5240117;28;20200;-62
2023/03/03 03:35:06;;;;;;;50.30;36.40;;;1.00;99.90;;;1.84;90.91;98092.38;5236672;28;20228;-62
2023/03/03 03:37:39;;;;;;;48.53;35.00;;;1.00;99.90;;;1.86;90.74;98100.97;5226600;28;20257;-62
2023/03/03 03:40:13;;;;;;;47.97;34.67;;;1.10;99.90;;;1.88;90.91;98091.91;5231300;28;20652;-62
2023/03/03 03:42:46;;;;;;;52.47;35.23;;;1.10;99.90;;;1.91;90.27;98099.75;5238097;28;21732;-62
2023/03/03 03:45:21;;;;;;;47.90;33.77;;;1.10;99.90;;;1.95;90.45;98101.81;5237567;28;20288;-61
2023/03/03 03:47:54;;;;;;;45.97;33.80;;;1.20;99.90;;;1.97;90.55;98094.41;5239633;28;20302;-62
2023/03/03 03:50:27;;;;;;;47.40;33.17;;;1.20;99.90;;;2.07;90.14;98097.03;5237917;28;20634;-62
2023/03/03 03:53:00;;;;;;;47.00;33.97;;;1.20;99.90;;;2.03;90.16;98100.00;5238087;28;20246;-61
2023/03/03 03:55:34;;;;;;;49.43;34.80;;;1.10;99.90;;;2.14;89.18;98096.84;5241587;28;20347;-62
2023/03/03 03:58:07;;;;;;;48.13;34.37;;;1.20;99.90;;;2.13;90.08;98094.22;5245583;28;20244;-62
2023/03/03 04:00:42;;;;;;;47.10;34.47;;;1.20;99.90;;;2.11;89.19;98104.13;5243427;28;20656;-62
2023/03/03 04:03:15;;;;;;;47.50;33.00;;;1.10;99.90;;;2.00;89.49;98094.69;5233255;28;20624;-61
2023/03/03 04:05:49;;;;;;;49.60;34.53;;;1.10;99.90;;;1.99;90.04;98098.84;5235036;28;20205;-62
2023/03/03 04:08:23;;;;;;;45.37;33.37;;;1.10;99.90;;;1.98;89.49;98107.16;5237342;28;20314;-63
2023/03/03 04:10:56;;;;;;;45.83;33.93;;;1.10;99.90;;;1.98;90.33;98107.16;5236193;28;20202;-62
2023/03/03 04:13:30;;;;;;;44.27;34.03;;;1.10;99.90;;;2.05;89.83;98108.59;5241957;28;20283;-63
2023/03/03 04:16:05;;;;;;;48.07;34.60;;;1.10;99.90;;;2.09;88.80;98110.69;5243565;28;20562;-62
2023/03/03 04:18:39;;;;;;;47.83;34.80;;;1.10;99.90;;;2.05;89.70;98097.63;5240330;28;20723;-62
2023/03/03 04:21:13;;;;;;;50.90;35.63;;;1.10;99.90;;;1.97;90.05;98115.44;5234127;28;20606;-62
2023/03/03 04:23:46;;;;;;;46.47;34.73;;;1.10;99.90;;;1.96;90.59;98112.78;5229779;28;20623;-62
2023/03/03 04:26:19;;;;;;;53.10;37.10;;;1.10;99.90;;;1.96;91.32;98101.06;5226058;28;20241;-63
2023/03/03 04:28:52;;;;;;;51.00;36.00;;;1.20;99.90;;;1.97;90.93;98107.00;5239403;28;20313;-63
2023/03/03 04:31:27;;;;;;;46.10;33.83;;;1.10;99.90;;;1.94;91.35;98114.28;5242110;28;20221;-62
2023/03/03 04:34:00;;;;;;;46.77;34.60;;;1.10;99.90;;;1.98;91.08;98117.25;5231080;28;20200;-63
2023/03/03 04:36:33;;;;;;;48.90;35.47;;;1.20;99.90;;;2.07;91.23;98107.13;5235016;28;20289;-62
2023/03/03 04:39:06;;;;;;;45.10;34.27;;;1.20;99.90;;;2.05;90.67;98107.72;5233158;28;20304;-63
2023/03/03 04:41:39;;;;;;;44.33;33.20;;;1.20;99.90;;;2.06;90.62;98110.41;5239547;28;20300;-63
2023/03/03 04:44:12;;;;;;;49.30;33.93;;;1.20;99.90;;;2.13;90.24;98107.69;5235702;28;20230;-61
2023/03/03 04:46:47;;;;;;;49.90;34.10;;;1.20;99.90;;;2.08;90.54;98098.81;5241338;28;20208;-63
2023/03/03 04:49:20;;;;;;;54.93;35.50;;;1.20;99.90;;;2.14;90.71;98104.41;5239352;28;20777;-63
2023/03/03 04:51:53;;;;;;;54.03;36.53;;;1.20;99.90;;;2.11;90.59;98109.16;5239839;28;20239;-63
2023/03/03 04:54:26;;;;;;;52.17;35.60;;;1.20;99.90;;;2.13;90.92;98116.91;5242103;28;20209;-62
2023/03/03 04:56:59;;;;;;;49.80;35.63;;;1.20;99.90;;;2.12;91.12;98116.00;5241115;28;20233;-62
2023/03/03 04:59:32;;;;;;;48.10;35.20;;;1.20;99.90;;;2.06;91.35;98125.53;5241439;28;20280;-62
2023/03/03 05:02:07;;;;;;;52.40;35.77;;;1.20;99.90;;;2.05;90.68;98123.72;5239753;28;20296;-63
2023/03/03 05:04:40;;;;;;;44.53;32.77;;;1.20;99.90;;;2.08;90.66;98124.00;5240627;28;20292;-65
2023/03/03 05:07:13;;;;;;;52.90;34.30;;;1.20;99.90;;;2.10;91.07;98131.72;5233401;28;20216;-62
2023/03/03 05:09:46;;;;;;;47.17;33.43;;;1.20;99.90;;;2.08;91.50;98131.56;5227073;28;20866;-63
2023/03/03 05:12:20;;;;;;;48.23;34.40;;;1.30;99.90;;;2.19;91.06;98128.44;5242414;28;20209;-63
2023/03/03 05:14:53;;;;;;;46.53;33.90;;;1.30;99.90;;;2.24;90.54;98127.22;5247507;28;20282;-64
2023/03/03 05:17:27;;;;;;;47.50;34.60;;;1.30;99.90;;;2.27;90.31;98131.69;5248012;28;20255;-63
2023/03/03 05:20:00;;;;;;;44.90;33.77;;;1.30;99.90;;;2.30;90.81;98124.38;5228983;28;21711;-63
2023/03/03 05:22:33;;;;;;;52.17;35.27;;;1.30;99.90;;;2.27;90.64;98126.63;5237127;28;20291;-63
2023/03/03 05:25:08;;;;;;;47.23;34.67;;;1.40;99.90;;;2.27;90.84;98125.75;5240564;28;20706;-63
2023/03/03 05:27:42;;;;;;;51.83;34.87;;;1.40;99.90;;;2.27;90.81;98121.59;5234875;28;20254;-63
2023/03/03 05:30:15;;;;;;;50.27;35.80;;;1.40;99.90;;;2.31;90.89;98132.84;5238134;28;20269;-62
2023/03/03 05:32:50;;;;;;;48.97;34.73;;;1.40;99.90;;;2.29;89.96;98134.31;5244150;28;20231;-62
2023/03/03 05:35:23;;;;;;;47.70;34.27;;;1.40;99.90;;;2.30;91.29;98133.59;5240123;28;20211;-62
2023/03/03 05:37:57;;;;;;;51.67;35.23;;;1.40;99.90;;;2.30;90.47;98141.16;5242063;28;20235;-63
2023/03/03 05:40:30;;;;;;;53.03;36.00;;;1.30;99.90;;;2.32;91.05;98129.56;5245093;28;20685;-63
2023/03/03 05:43:03;;;;;;;49.50;34.87;;;1.30;99.90;;;2.31;90.82;98138.75;5241110;28;20219;-62
2023/03/03 05:45:36;;;;;;;47.87;34.87;;;1.40;99.90;;;2.27;91.31;98148.44;5238409;28;20208;-62
2023/03/03 05:48:11;;;;;;;49.97;35.63;;;1.40;99.90;;;2.29;90.88;98151.97;5237220;28;20307;-62
2023/03/03 05:50:44;;;;;;;50.83;35.60;;;1.40;99.90;;;2.31;91.18;98153.00;5238439;28;20216;-62
2023/03/03 05:53:17;;;;;;;52.83;36.70;;;1.40;99.90;;;2.29;91.65;98149.44;5238435;28;20263;-63
2023/03/03 05:55:50;;;;;;;51.07;35.80;;;1.40;99.90;;;2.25;91.95;98151.69;5240135;28;20251;-61
2023/03/03 05:58:23;;;;;;;55.93;36.33;;;1.40;99.90;;;2.29;91.18;98157.00;5234214;28;20219;-62
2023/03/03 06:00:56;;;;;;;49.00;35.20;;;1.50;99.90;;;2.25;92.41;98159.25;5233232;28;20295;-63
2023/03/03 06:03:31;;;;;;;55.53;37.93;;;1.50;99.90;;;2.31;91.74;98163.09;5241629;28;20608;-62
2023/03/03 06:06:04;;;;;;;52.03;35.83;;;1.50;99.90;;;2.30;91.93;98167.25;5242638;28;20235;-63
2023/03/03 06:08:37;;;;;;;50.50;35.83;;;1.50;99.90;;;2.36;91.68;98157.75;5238556;28;20321;-63
2023/03/03 06:11:11;;;;;;;50.33;37.00;;;1.60;99.90;;;2.37;91.83;98169.59;5242500;28;20275;-61
2023/03/03 06:13:45;;;;;;;50.90;36.83;;;1.60;99.90;;;2.40;91.65;98163.94;5234815;28;20610;-62
2023/03/03 06:16:18;;;;;;;51.03;36.90;;;1.50;99.90;;;2.42;91.53;98168.41;5240213;28;20288;-63
2023/03/03 06:18:52;;;;;;;49.80;35.80;;;1.60;99.90;;;2.50;91.08;98176.69;5236156;28;20228;-63
2023/03/03 06:21:25;;;;;;;53.50;37.50;;;1.60;99.90;;;2.49;91.02;98174.91;5235928;28;20197;-62
2023/03/03 06:23:58;;;;;;;52.73;36.50;;;1.60;99.90;;;2.57;90.22;98171.44;5234268;28;20228;-63
2023/03/03 06:26:32;;;;;;;52.60;36.67;;;1.60;99.90;;;2.51;90.58;98178.44;5238053;28;20622;-63
2023/03/03 06:29:06;;;;;;;54.93;37.77;;;1.60;99.90;;;2.48;90.44;98178.16;5247775;28;20626;-63
2023/03/03 06:31:39;;;;;;;53.07;37.00;;;1.60;99.90;;;2.46;90.65;98183.09;5251339;28;20731;-63
2023/03/03 06:34:13;;;;;;;53.30;35.77;;;1.60;99.90;;;2.48;90.62;98184.09;5238725;28;20198;-62
2023/03/03 06:36:47;;;;;;;51.83;36.43;;;1.70;99.90;;;2.54;91.82;98188.81;5232208;28;20200;-63
2023/03/03 06:39:20;;;;;;;53.50;37.07;;;1.70;99.90;;;2.56;90.93;98194.03;5238761;28;20196;-63
2023/03/03 06:41:53;;;;;;;54.17;38.50;;;1.70;99.90;;;2.59;91.14;98187.63;5243816;28;20611;-62
2023/03/03 06:44:27;;;;;;;54.37;37.00;;;1.70;99.90;;;2.64;91.05;98191.47;5239806;28;20234;-62
2023/03/03 06:47:01;;;;;;;53.37;35.77;;;1.70;99.90;;;2.68;90.37;98193.50;5238264;28;20277;-63
2023/03/03 06:49:35;;;;;;;50.97;35.50;;;1.80;99.90;;;2.74;90.15;98197.34;5237735;28;20318;-63
2023/03/03 06:52:14;;;;;;;53.20;37.20;;;1.80;99.90;;;2.76;90.80;98205.97;5236692;28;20326;-62
2023/03/03 06:54:47;;;;;;;55.37;38.03;;;1.80;99.90;;;2.78;90.35;98202.84;5231467;28;20219;-63
2023/03/03 06:57:26;;;;;;;53.67;36.33;;;1.80;99.90;;;2.77;90.63;98200.16;5237511;28;20269;-63
2023/03/03 07:00:14;;;;;;;50.77;34.73;;;1.80;99.90;;;2.85;89.17;98204.28;5242114;28;20284;-63
2023/03/03 07:02:48;;;;;;;50.70;35.63;;;1.90;99.90;;;2.91;89.64;98202.31;5229888;28;20206;-63
2023/03/03 07:05:27;;;;;;;49.30;35.90;;;1.90;99.90;;;2.91;89.98;98209.91;5232845;28;20204;-63
2023/03/03 07:08:00;;;;;;;54.37;37.43;;;1.90;99.90;;;2.84;90.30;98213.50;5241149;28;20229;-63
2023/03/03 07:10:34;;;;;;;51.50;36.57;;;1.90;99.90;;;2.84;90.01;98210.97;5236637;28;20226;-62
2023/03/03 07:13:19;;;;;;;53.10;36.90;;;1.90;99.90;;;2.91;89.45;98212.41;5238689;28;20345;-63
2023/03/03 07:15:54;;;;;;;53.17;36.73;;;2.00;99.90;;;2.95;89.27;98219.53;5237548;28;20248;-63
2023/03/03 07:18:39;;;;;;;48.10;36.67;;;2.00;99.90;;;3.02;89.39;98219.34;5235329;28;20332;-63
2023/03/03 07:21:20;;;;;;;55.00;37.10;;;2.00;99.90;;;3.04;89.66;98222.91;5238833;28;20239;-63
2023/03/03 07:23:54;;;;;;;48.70;35.90;;;2.10;99.90;;;3.07;89.78;98218.13;5240025;28;20638;-63
2023/03/03 07:26:31;;;;;;;55.43;37.67;;;2.10;99.90;;;3.09;89.24;98221.69;5238349;28;20577;-61
2023/03/03 07:29:21;;;;;;;55.63;37.50;;;2.10;99.90;;;3.14;89.40;98228.03;5235197;28;20234;-61
2023/03/03 07:31:56;;;;;;;55.13;38.17;;;2.20;99.90;;;3.20;89.24;98226.81;5237869;28;20238;-61
2023/03/03 07:34:36;;;;;;;53.60;38.07;;;2.20;99.90;;;3.33;88.45;98225.56;5249769;28;21483;-61
2023/03/03 07:37:20;;;;;;;54.43;37.50;;;2.30;99.90;;;3.39;88.38;98225.22;5235566;28;20239;-61
2023/03/03 07:39:54;;;;;;;51.63;38.77;;;2.40;99.90;;;3.38;88.32;98229.38;5234335;28;20286;-62
2023/03/03 07:42:33;;;;;;;53.57;38.77;;;2.40;99.90;;;3.44;88.33;98224.00;5233906;28;20302;-61
2023/03/03 07:45:26;;;;;;;51.73;36.83;;;2.50;99.90;;;3.56;87.51;98227.63;5232985;28;20290;-62
2023/03/03 07:48:09;;;;;;;54.20;39.07;;;2.60;99.90;;;3.53;87.26;98219.75;5233449;28;20259;-61
2023/03/03 07:50:42;;;;;;;53.97;38.63;;;2.60;99.90;;;3.60;86.82;98224.59;5239583;28;20760;-61
2023/03/03 07:53:27;;;;;;;54.77;38.50;;;2.60;99.90;;;3.70;87.28;98230.50;5241758;28;20297;-61
2023/03/03 07:56:00;;;;;;;54.50;38.10;;;2.80;99.90;;;3.80;87.73;98241.53;5236971;28;20642;-61
2023/03/03 07:58:39;;;;;;;54.67;40.10;;;2.90;99.90;;;3.91;87.39;98229.88;5234964;28;20230;-62
2023/03/03 08:01:41;;;;;;;55.67;41.13;;;3.00;99.90;;;3.99;86.77;98238.13;5240136;28;20255;-61
2023/03/03 08:04:23;;;;;;;56.73;40.83;;;3.00;99.90;;;4.02;86.54;98234.22;5229043;28;20251;-61
2023/03/03 08:06:58;;;;;;;57.23;40.67;;;3.10;99.90;;;4.20;85.80;98234.06;5236479;28;20193;-62
2023/03/03 08:09:46;;;;;;;58.03;40.97;;;3.20;99.90;;;4.31;85.33;98232.47;5234272;28;20808;-62
2023/03/03 08:12:40;;;;;;;57.80;41.07;;;3.30;99.90;;;4.34;85.58;98238.69;5241963;28;20221;-62
2023/03/03 08:15:32;;;;;;;57.67;40.67;;;3.40;99.90;;;4.43;85.54;98243.66;5233351;28;20283;-62
2023/03/03 08:18:22;;;;;;;57.27;41.63;;;3.50;99.90;;;4.46;84.98;98239.78;5243283;28;20215;-62
2023/03/03 08:20:58;;;;;;;60.43;43.23;;;3.50;99.90;;;4.61;85.66;98227.53;5236879;28;20739;-62
2023/03/03 08:23:31;;;;;;;59.83;42.77;;;3.70;99.90;;;4.93;85.53;98221.78;5240767;28;20261;-60
2023/03/03 08:26:07;;;;;;;58.07;41.13;;;4.10;99.90;;;5.26;84.53;98221.19;5240940;28;20249;-62
2023/03/03 08:28:40;;;;;;;58.33;41.23;;;4.40;99.90;;;5.69;81.36;98229.78;5239880;28;20308;-61
2023/03/03 08:31:13;;;;;;;56.77;42.47;;;4.60;99.90;;;5.95;78.63;98226.88;5240447;28;20221;-62
2023/03/03 08:33:59;;;;;;;57.87;40.23;;;4.90;99.90;;;6.24;77.46;98230.88;5232160;28;20287;-62
2023/03/03 08:36:32;;;;;;;59.37;40.63;;;5.10;99.90;;;6.36;76.31;98224.22;5238601;28;20567;-62
2023/03/03 08:39:08;;;;;;;49.50;38.27;;;5.20;99.90;;;6.37;76.68;98227.63;5234941;28;20307;-62
2023/03/03 08:41:43;;;;;;;52.37;38.37;;;5.40;99.90;;;6.50;75.11;98233.81;5236014;28;20203;-60
2023/03/03 08:44:16;;;;;;;53.13;39.33;;;5.30;99.90;;;6.40;74.53;98227.88;5237880;28;20261;-62
2023/03/03 08:46:49;;;;;;;57.43;41.27;;;5.30;99.90;;;6.42;74.92;98233.97;5227751;28;20637;-62
2023/03/03 08:49:22;;;;;;;54.57;39.90;;;5.30;99.90;;;6.47;75.29;98235.22;5238263;28;20227;-61
2023/03/03 08:51:55;;;;;;;55.27;40.50;;;5.40;99.90;;;6.68;72.92;98231.81;5239976;28;20312;-62
2023/03/03 08:54:29;;;;;;;53.53;39.20;;;5.60;99.90;;;6.53;72.95;98240.78;5229439;28;20532;-59
2023/03/03 08:57:03;;;;;;;59.30;39.73;;;5.40;99.90;;;6.63;72.37;98240.72;5240179;28;20255;-62
2023/03/03 08:59:37;;;;;;;59.33;40.97;;;5.60;99.90;;;6.71;71.80;98244.75;5234710;28;20204;-61
2023/03/03 09:02:11;;;;;;;57.90;41.23;;;5.50;99.90;;;6.81;71.65;98248.00;5241545;28;20200;-62
2023/03/03 09:04:44;;;;;;;58.93;41.30;;;5.80;99.90;;;6.83;71.33;98246.47;5237561;28;20197;-61
2023/03/03 09:07:17;;;;;;;58.77;42.43;;;5.70;99.90;;;6.86;70.85;98252.66;5242670;28;20669;-61
2023/03/03 09:09:50;;;;;;;58.73;41.40;;;5.70;99.90;;;6.79;71.33;98247.00;5241258;28;20642;-61
2023/03/03 09:12:31;;;;;;;62.90;42.83;;;5.60;99.90;;;6.75;72.28;98251.88;5236588;28;20711;-59
2023/03/03 09:15:20;;;;;;;57.20;41.57;;;5.70;99.90;;;6.90;72.08;98254.69;5233733;28;20251;-61
2023/03/03 09:17:54;;;;;;;54.10;40.57;;;5.80;99.90;;;7.10;71.05;98256.22;5238728;28;20300;-61
2023/03/03 09:20:35;;;;;;;57.67;41.10;;;5.80;99.90;;;7.12;71.24;98259.75;5235848;28;20197;-62
2023/03/03 09:23:34;;;;;;;55.07;40.27;;;5.90;99.90;;;7.14;70.93;98263.31;5240334;28;20188;-62
2023/03/03 09:26:29;;;;;;;52.63;39.03;;;5.90;99.90;;;7.24;70.58;98264.91;5225234;28;20229;-62
2023/03/03 09:29:22;;;;;;;56.13;40.67;;;6.00;99.90;;;7.15;71.35;98277.81;5245182;28;20295;-62
2023/03/03 09:31:57;;;;;;;55.17;39.50;;;6.00;99.90;;;7.30;70.96;98274.66;5230860;28;20319;-59
2023/03/03 09:34:40;;;;;;;53.80;41.17;;;6.00;99.90;;;7.44;69.68;98276.59;5240567;28;20206;-61
2023/03/03 09:37:22;;;;;;;51.27;39.67;;;6.20;99.90;;;7.50;70.38;98273.59;5238195;28;20239;-61
2023/03/03 09:39:57;;;;;;;56.90;40.23;;;6.30;99.90;;;7.64;69.37;98267.91;5230373;28;20250;-61
2023/03/03 09:42:49;;;;;;;55.53;40.47;;;6.20;99.90;;;7.61;70.14;98258.41;5242956;28;20188;-61
2023/03/03 09:45:49;;;;;;;51.60;38.63;;;6.30;99.90;;;7.69;69.47;98266.59;5237723;28;20621;-62
2023/03/03 09:48:47;;;;;;;53.40;40.30;;;6.40;99.90;;;7.76;69.02;98265.41;5235964;28;20639;-61
2023/03/03 09:51:39;;;;;;;55.23;41.27;;;6.50;99.90;;;7.88;69.01;98261.22;5244613;28;20715;-62
2023/03/03 09:54:32;;;;;;;52.30;39.37;;;6.60;99.90;;;7.97;67.17;98264.44;5234796;28;20192;-62
2023/03/03 09:57:14;;;;;;;55.23;40.83;;;6.60;99.90;;;7.78;67.97;98266.38;5246106;28;20287;-61
2023/03/03 10:00:25;;;;;;;49.20;38.03;;;6.60;99.90;;;8.03;66.59;98259.78;5238357;28;20196;-62
2023/03/03 10:03:28;;;;;;;51.87;38.80;;;6.70;99.90;;;8.06;66.16;98264.22;5234136;28;20229;-61
2023/03/03 10:06:11;;;;;;;52.17;39.47;;;6.80;99.90;;;8.12;65.16;98270.63;5235387;28;20196;-61
2023/03/03 10:09:01;;;;;;;50.67;37.60;;;6.90;99.90;;;8.02;65.94;98268.22;5234714;28;20229;-62
2023/03/03 10:11:42;;;;;;;53.83;38.37;;;6.80;99.90;;;8.05;65.58;98263.34;5235595;28;20629;-61
2023/03/03 10:14:37;;;;;;;52.83;37.47;;;6.90;99.90;;;8.24;64.88;98265.59;5243908;28;20224;-63
2023/03/03 10:17:25;;;;;;;51.77;38.57;;;7.10;99.90;;;8.18;65.91;98264.22;5235213;28;20712;-61
2023/03/03 10:20:16;;;;;;;50.93;38.57;;;7.00;99.90;;;8.29;64.68;98263.34;5239183;28;20228;-62
2023/03/03 10:22:54;;;;;;;53.20;38.83;;;6.80;99.90;;;8.20;65.24;98258.47;5237788;28;20195;-62
2023/03/03 10:25:41;;;;;;;47.20;36.93;;;6.90;99.90;;;8.20;64.90;98261.03;5240649;28;20192;-60
2023/03/03 10:28:37;;;;;;;49.60;38.27;;;7.00;99.90;;;8.37;64.59;98257.16;5232864;28;20299;-60
2023/03/03 10:31:19;;;;;;;48.20;37.73;;;7.10;99.90;;;8.61;64.26;98260.59;5232030;28;20319;-61
2023/03/03 10:33:59;;;;;;;49.43;37.40;;;7.60;99.90;;;8.51;64.11;98256.50;5240778;28;20204;-62
2023/03/03 10:36:49;;;;;;;47.97;38.23;;;7.50;99.90;;;8.66;64.03;98255.81;5238108;28;20236;-61
2023/03/03 10:39:48;;;;;;;47.43;37.53;;;7.50;99.90;;;8.86;61.82;98258.09;5232646;28;20236;-62
2023/03/03 10:42:45;;;;;;;49.23;38.17;;;7.90;99.90;;;8.88;62.74;98251.47;5238958;28;20279;-61
2023/03/03 10:45:41;;;;;;;49.17;37.60;;;7.80;99.90;;;9.05;62.05;98246.66;5240470;28;20723;-62
2023/03/03 10:48:41;;;;;;;47.77;37.53;;;7.90;99.90;;;9.35;61.46;98242.75;5241937;28;20224;-62
2023/03/03 10:51:27;;;;;;;48.47;37.30;;;8.30;99.90;;;9.47;61.88;98247.03;5237075;28;20339;-62
2023/03/03 10:54:22;;;;;;;46.30;36.20;;;8.50;99.90;;;9.58;60.08;98241.75;5232359;28;20203;-62
2023/03/03 10:57:03;;;;;;;46.20;36.93;;;8.60;99.90;;;9.80;59.88;98232.19;5234042;28;20205;-61
2023/03/03 11:00:01;;;;;;;47.73;37.43;;;8.80;99.90;;;9.91;58.86;98238.88;5239641;28;20230;-61
2023/03/03 11:02:47;;;;;;;46.60;36.88;;;8.90;99.90;;;10.01;57.34;98239.47;5242249;28;20185;-61
2023/03/03 11:05:33;;;;;;;43.53;36.07;;;9.10;99.90;;;9.97;57.13;98243.50;5237470;28;20236;-62